Time;durP1;ratioP1;P1;durP2;ratioP2;P2;SDS_P1;SDS_P2;PMS_P1;PMS_P2;Temp;Humidity;BMP_temperature;BMP_pressure;BME280_temperature;BME280_humidity;BME280_pressure;Samples;Min_cycle;Max_cycle;Signal;HPM_P1;HPM_P2
2021/09/29 00:01:59;;;;;;;38.10;4.28;;;;;;;;;;5066585;28;20032;-46
2021/09/29 00:04:26;;;;;;;30.95;3.97;;;;;;;;;;5067270;28;20025;-45
2021/09/29 00:06:53;;;;;;;22.80;3.53;;;;;;;;;;5065982;28;20052;-44
2021/09/29 00:09:20;;;;;;;32.13;3.25;;;;;;;;;;5065282;28;20483;-45
2021/09/29 00:11:48;;;;;;;24.65;3.78;;;;;;;;;;5065485;28;20040;-44
2021/09/29 00:14:15;;;;;;;36.78;3.95;;;;;;;;;;5065342;28;20057;-44
2021/09/29 00:16:42;;;;;;;29.67;4.05;;;;;;;;;;5065275;28;20024;-46
2021/09/29 00:19:10;;;;;;;25.60;4.13;;;;;;;;;;5065560;28;20029;-42
2021/09/29 00:21:37;;;;;;;32.08;3.33;;;;;;;;;;5064195;28;20024;-46
2021/09/29 00:24:04;;;;;;;24.15;3.50;;;;;;;;;;5064910;28;20017;-44
2021/09/29 00:26:31;;;;;;;27.63;3.28;;;;;;;;;;5065580;28;20041;-45
2021/09/29 00:28:58;;;;;;;23.48;3.35;;;;;;;;;;5065838;28;20040;-44
2021/09/29 00:34:01;;;;;;;21.33;3.75;;;;;;;;;;5064713;28;20043;-43
2021/09/29 00:36:28;;;;;;;27.20;3.40;;;;;;;;;;5068412;28;20462;-43
2021/09/29 00:38:55;;;;;;;20.48;3.25;;;;;;;;;;5062178;28;20028;-44
2021/09/29 00:41:22;;;;;;;24.25;3.67;;;;;;;;;;5067817;28;20495;-46
2021/09/29 00:43:49;;;;;;;17.52;2.80;;;;;;;;;;5065474;28;20051;-45
2021/09/29 00:46:17;;;;;;;26.30;3.65;;;;;;;;;;5064238;28;20171;-45
2021/09/29 00:48:43;;;;;;;20.13;3.53;;;;;;;;;;5061148;28;20392;-47
2021/09/29 00:51:11;;;;;;;24.55;2.90;;;;;;;;;;5060773;28;20026;-46
2021/09/29 00:53:39;;;;;;;23.83;3.20;;;;;;;;;;5067832;28;20343;-46
2021/09/29 00:56:06;;;;;;;20.13;3.42;;;;;;;;;;5066001;28;20034;-46
2021/09/29 00:58:33;;;;;;;23.13;5.43;;;;;;;;;;5065601;28;20070;-45
2021/09/29 01:01:00;;;;;;;33.22;6.50;;;;;;;;;;5064699;28;20017;-45
2021/09/29 01:03:27;;;;;;;36.13;7.85;;;;;;;;;;5067968;28;20016;-46
2021/09/29 01:05:58;;;;;;;52.60;9.93;;;;;;;;;;5069002;28;20063;-46
2021/09/29 01:08:28;;;;;;;50.38;11.32;;;;;;;;;;5061970;28;20033;-46
2021/09/29 01:11:16;;;;;;;43.80;10.30;;;;;;;;;;5070604;28;20048;-45
2021/09/29 01:13:49;;;;;;;44.13;10.43;;;;;;;;;;5058768;28;20032;-46
2021/09/29 01:16:17;;;;;;;49.42;11.35;;;;;;;;;;5066295;28;20056;-48
2021/09/29 01:18:47;;;;;;;46.97;10.77;;;;;;;;;;5067061;28;20025;-46
2021/09/29 01:21:15;;;;;;;40.03;10.50;;;;;;;;;;5060497;28;20102;-48
2021/09/29 01:23:56;;;;;;;38.92;10.57;;;;;;;;;;5057778;28;20021;-46
2021/09/29 01:26:27;;;;;;;44.67;10.45;;;;;;;;;;5064474;28;21540;-46
2021/09/29 01:28:57;;;;;;;44.35;10.23;;;;;;;;;;5062239;28;20048;-46
2021/09/29 01:31:25;;;;;;;36.15;9.77;;;;;;;;;;5057674;28;20093;-47
2021/09/29 01:33:53;;;;;;;35.88;9.95;;;;;;;;;;5054909;28;20063;-45
2021/09/29 01:36:22;;;;;;;34.70;9.00;;;;;;;;;;5067504;28;20052;-46
2021/09/29 01:38:59;;;;;;;39.80;10.00;;;;;;;;;;5050389;28;20021;-46
2021/09/29 01:41:27;;;;;;;37.25;9.07;;;;;;;;;;5051232;28;20032;-48
2021/09/29 01:43:55;;;;;;;35.67;8.43;;;;;;;;;;5059983;28;20396;-46
2021/09/29 01:46:23;;;;;;;46.58;9.05;;;;;;;;;;5071257;28;20071;-49
2021/09/29 01:49:08;;;;;;;38.70;8.32;;;;;;;;;;5071259;28;20468;-47
2021/09/29 01:51:45;;;;;;;33.63;8.40;;;;;;;;;;5069541;28;20070;-47
2021/09/29 01:54:14;;;;;;;35.60;8.02;;;;;;;;;;5069756;28;20020;-47
2021/09/29 01:56:42;;;;;;;28.08;7.60;;;;;;;;;;5067636;28;20467;-46
2021/09/29 01:59:09;;;;;;;31.13;7.53;;;;;;;;;;5069190;28;20108;-47
2021/09/29 02:02:02;;;;;;;32.70;8.18;;;;;;;;;;5069002;28;20388;-46
2021/09/29 02:04:30;;;;;;;33.20;7.80;;;;;;;;;;5068536;28;20423;-46
2021/09/29 02:06:58;;;;;;;33.17;7.47;;;;;;;;;;5067964;28;20474;-46
2021/09/29 02:09:26;;;;;;;31.67;6.95;;;;;;;;;;5069308;28;20495;-46
2021/09/29 02:11:54;;;;;;;32.22;6.68;;;;;;;;;;5068621;28;20037;-47
2021/09/29 02:14:22;;;;;;;25.58;6.85;;;;;;;;;;5063158;28;20434;-45
2021/09/29 02:16:50;;;;;;;36.78;6.90;;;;;;;;;;5069524;28;20024;-44
2021/09/29 02:19:17;;;;;;;28.70;6.15;;;;;;;;;;5069567;28;20060;-44
2021/09/29 02:21:44;;;;;;;29.63;6.30;;;;;;;;;;5067990;28;20357;-43
2021/09/29 02:24:12;;;;;;;27.52;6.32;;;;;;;;;;5068406;28;20471;-46
2021/09/29 02:26:39;;;;;;;23.33;6.20;;;;;;;;;;5069321;28;20029;-50
2021/09/29 02:29:07;;;;;;;23.65;5.47;;;;;;;;;;5069505;28;20033;-47
2021/09/29 02:31:34;;;;;;;18.02;5.45;;;;;;;;;;5069645;28;20020;-47
2021/09/29 02:34:01;;;;;;;17.73;5.68;;;;;;;;;;5069559;28;20017;-46
2021/09/29 02:36:29;;;;;;;25.42;5.80;;;;;;;;;;5067694;28;20048;-44
2021/09/29 02:38:56;;;;;;;24.20;6.32;;;;;;;;;;5065950;28;20419;-43
2021/09/29 02:41:24;;;;;;;25.85;6.15;;;;;;;;;;5069194;28;20033;-43
2021/09/29 02:43:51;;;;;;;31.23;6.03;;;;;;;;;;5069479;28;20013;-44
2021/09/29 02:46:18;;;;;;;22.83;5.78;;;;;;;;;;5068031;28;20048;-46
2021/09/29 02:48:45;;;;;;;19.30;5.28;;;;;;;;;;5069991;28;20473;-44
2021/09/29 02:51:11;;;;;;;19.35;5.32;;;;;;;;;;5070813;28;20035;-45
2021/09/29 02:53:39;;;;;;;20.20;5.38;;;;;;;;;;5069561;28;20035;-48
2021/09/29 02:56:06;;;;;;;22.48;5.25;;;;;;;;;;5071014;28;20586;-47
2021/09/29 02:58:33;;;;;;;24.70;5.18;;;;;;;;;;5070978;28;20024;-45
2021/09/29 03:01:00;;;;;;;21.50;5.88;;;;;;;;;;5070891;28;20016;-45
2021/09/29 03:03:28;;;;;;;16.80;5.60;;;;;;;;;;5070933;28;20024;-45
2021/09/29 03:05:55;;;;;;;24.00;5.07;;;;;;;;;;5069497;28;20032;-48
2021/09/29 03:08:22;;;;;;;21.67;5.03;;;;;;;;;;5070906;28;20031;-45
2021/09/29 03:10:49;;;;;;;16.35;4.93;;;;;;;;;;5070368;28;20082;-44
2021/09/29 03:13:16;;;;;;;17.30;5.35;;;;;;;;;;5070288;28;20032;-46
2021/09/29 03:15:43;;;;;;;20.60;4.72;;;;;;;;;;5069587;28;20017;-47
2021/09/29 03:18:10;;;;;;;17.25;4.25;;;;;;;;;;5072690;28;20074;-46
2021/09/29 03:20:37;;;;;;;18.00;4.35;;;;;;;;;;5074605;28;20027;-45
2021/09/29 03:23:04;;;;;;;21.85;4.18;;;;;;;;;;5074370;28;20487;-46
2021/09/29 03:25:32;;;;;;;15.50;4.40;;;;;;;;;;5072701;28;20060;-46
2021/09/29 03:27:59;;;;;;;14.85;4.07;;;;;;;;;;5074362;28;20357;-46
2021/09/29 03:30:26;;;;;;;15.88;4.53;;;;;;;;;;5072784;28;20021;-49
2021/09/29 03:32:53;;;;;;;18.27;4.00;;;;;;;;;;5074189;28;20048;-45
2021/09/29 03:35:20;;;;;;;22.67;4.35;;;;;;;;;;5073992;28;20078;-46
2021/09/29 03:37:47;;;;;;;14.98;3.97;;;;;;;;;;5074035;28;20070;-44
2021/09/29 03:40:15;;;;;;;16.95;4.13;;;;;;;;;;5073909;28;20074;-45
2021/09/29 03:42:42;;;;;;;14.68;4.00;;;;;;;;;;5074248;28;20484;-44
2021/09/29 03:45:10;;;;;;;10.82;3.60;;;;;;;;;;5072532;28;20029;-44
2021/09/29 03:47:38;;;;;;;11.93;3.72;;;;;;;;;;5073944;28;20037;-44
2021/09/29 03:50:06;;;;;;;13.38;3.42;;;;;;;;;;5074069;28;20476;-46
2021/09/29 03:52:32;;;;;;;12.73;3.72;;;;;;;;;;5073834;28;20103;-46
2021/09/29 03:54:59;;;;;;;14.98;3.83;;;;;;;;;;5073686;28;20473;-43
2021/09/29 03:57:26;;;;;;;11.27;3.63;;;;;;;;;;5073912;28;20158;-45
2021/09/29 03:59:53;;;;;;;14.27;4.07;;;;;;;;;;5073690;28;20056;-45
2021/09/29 04:02:20;;;;;;;13.90;3.42;;;;;;;;;;5073532;28;20100;-46
2021/09/29 04:04:47;;;;;;;12.20;3.83;;;;;;;;;;5073708;28;20020;-45
2021/09/29 04:07:14;;;;;;;9.43;3.17;;;;;;;;;;5073460;28;20495;-46
2021/09/29 04:09:41;;;;;;;11.50;3.60;;;;;;;;;;5073331;28;20031;-45
2021/09/29 04:12:08;;;;;;;12.13;3.50;;;;;;;;;;5073596;28;20021;-45
2021/09/29 04:14:35;;;;;;;10.68;3.45;;;;;;;;;;5073273;28;20027;-45
2021/09/29 04:17:02;;;;;;;12.50;3.40;;;;;;;;;;5073213;28;20027;-45
2021/09/29 04:19:29;;;;;;;10.70;3.08;;;;;;;;;;5073360;28;20021;-45
2021/09/29 04:21:56;;;;;;;10.63;2.92;;;;;;;;;;5072983;28;20020;-47
2021/09/29 04:24:23;;;;;;;13.35;2.97;;;;;;;;;;5072946;28;20024;-44
2021/09/29 04:26:50;;;;;;;7.38;3.00;;;;;;;;;;5072070;28;20090;-44
2021/09/29 04:29:17;;;;;;;9.38;3.05;;;;;;;;;;5071963;28;20373;-49
2021/09/29 04:31:44;;;;;;;7.88;2.63;;;;;;;;;;5071732;28;20521;-46
2021/09/29 04:34:11;;;;;;;9.05;2.90;;;;;;;;;;5073097;28;20048;-45
2021/09/29 04:36:39;;;;;;;9.25;2.47;;;;;;;;;;5072618;28;20049;-44
2021/09/29 04:39:06;;;;;;;8.55;2.80;;;;;;;;;;5072926;28;20055;-44
2021/09/29 04:41:33;;;;;;;9.43;2.85;;;;;;;;;;5072983;28;20028;-45
2021/09/29 04:44:00;;;;;;;8.25;2.55;;;;;;;;;;5071817;28;20103;-45
2021/09/29 04:46:27;;;;;;;10.15;2.60;;;;;;;;;;5072483;28;20031;-44
2021/09/29 04:48:54;;;;;;;9.68;2.70;;;;;;;;;;5072776;28;20024;-44
2021/09/29 04:51:21;;;;;;;7.63;2.65;;;;;;;;;;5072587;28;20535;-45
2021/09/29 04:53:48;;;;;;;7.05;2.55;;;;;;;;;;5072535;28;20464;-45
2021/09/29 04:56:15;;;;;;;9.77;3.35;;;;;;;;;;5072399;28;20174;-46
2021/09/29 04:58:46;;;;;;;8.27;2.50;;;;;;;;;;5072692;28;20032;-44
2021/09/29 05:01:16;;;;;;;5.93;2.17;;;;;;;;;;5072342;28;20025;-46
2021/09/29 05:03:43;;;;;;;8.95;2.20;;;;;;;;;;5072395;28;20021;-47
2021/09/29 05:06:10;;;;;;;7.57;2.20;;;;;;;;;;5072291;28;20028;-46
2021/09/29 05:08:38;;;;;;;6.97;2.08;;;;;;;;;;5072269;28;20032;-46
2021/09/29 05:11:08;;;;;;;9.52;2.25;;;;;;;;;;5072212;28;20070;-45
2021/09/29 05:13:35;;;;;;;10.93;2.30;;;;;;;;;;5072340;28;20039;-46
2021/09/29 05:16:03;;;;;;;5.55;2.05;;;;;;;;;;5072147;28;20484;-45
2021/09/29 05:18:31;;;;;;;10.27;2.38;;;;;;;;;;5072109;28;20025;-45
2021/09/29 05:20:58;;;;;;;7.70;2.38;;;;;;;;;;5072207;28;20500;-47
2021/09/29 05:23:26;;;;;;;8.30;2.05;;;;;;;;;;5072203;28;20403;-46
2021/09/29 05:25:53;;;;;;;9.93;2.35;;;;;;;;;;5071746;28;20020;-45
2021/09/29 05:28:24;;;;;;;7.20;2.03;;;;;;;;;;5071799;28;20036;-45
2021/09/29 05:30:51;;;;;;;8.60;2.05;;;;;;;;;;5071988;28;20017;-45
2021/09/29 05:33:18;;;;;;;10.07;2.30;;;;;;;;;;5071629;28;20020;-46
2021/09/29 05:35:45;;;;;;;6.13;2.13;;;;;;;;;;5071354;28;20040;-46
2021/09/29 05:38:12;;;;;;;5.95;1.77;;;;;;;;;;5071931;28;20029;-46
2021/09/29 05:40:39;;;;;;;6.47;2.45;;;;;;;;;;5070676;28;20060;-43
2021/09/29 05:43:06;;;;;;;7.53;2.08;;;;;;;;;;5070371;28;20098;-44
2021/09/29 05:45:33;;;;;;;6.80;1.83;;;;;;;;;;5071614;28;20032;-44
2021/09/29 05:48:00;;;;;;;4.97;1.70;;;;;;;;;;5071641;28;20099;-46
2021/09/29 05:50:27;;;;;;;6.15;2.22;;;;;;;;;;5071522;28;20028;-45
2021/09/29 05:52:54;;;;;;;6.47;1.90;;;;;;;;;;5071707;28;20017;-46
2021/09/29 05:55:21;;;;;;;5.85;1.63;;;;;;;;;;5071515;28;20035;-45
2021/09/29 05:57:48;;;;;;;5.15;1.67;;;;;;;;;;5071447;28;20020;-47
2021/09/29 06:00:15;;;;;;;8.95;1.65;;;;;;;;;;5071673;28;20032;-46
2021/09/29 06:02:42;;;;;;;3.72;1.45;;;;;;;;;;5071448;28;20025;-47
2021/09/29 06:05:10;;;;;;;5.32;1.73;;;;;;;;;;5071231;28;20047;-44
2021/09/29 06:07:37;;;;;;;6.47;1.48;;;;;;;;;;5071625;28;20036;-48
2021/09/29 06:10:05;;;;;;;8.30;1.70;;;;;;;;;;5071393;28;20423;-46
2021/09/29 06:12:31;;;;;;;4.45;1.55;;;;;;;;;;5070012;28;20024;-45
2021/09/29 06:14:59;;;;;;;5.45;1.70;;;;;;;;;;5071411;28;20095;-46
2021/09/29 06:17:52;;;;;;;4.55;1.63;;;;;;;;;;5071252;28;20017;-45
2021/09/29 06:20:15;;;;;;;4.95;1.48;;;;;;;;;;5071072;28;20028;-45
2021/09/29 06:22:42;;;;;;;6.13;1.75;;;;;;;;;;5071245;28;20442;-43
2021/09/29 06:25:09;;;;;;;2.60;1.30;;;;;;;;;;5069888;28;20107;-45
2021/09/29 06:27:36;;;;;;;4.65;1.60;;;;;;;;;;5071397;28;20032;-44
2021/09/29 06:30:04;;;;;;;6.30;1.67;;;;;;;;;;5071189;28;20044;-48
2021/09/29 06:32:31;;;;;;;9.95;2.15;;;;;;;;;;5071116;28;20035;-45
2021/09/29 06:34:59;;;;;;;5.85;1.10;;;;;;;;;;5071140;28;20039;-45
2021/09/29 06:37:26;;;;;;;5.35;1.50;;;;;;;;;;5071035;28;20047;-46
2021/09/29 06:39:53;;;;;;;4.35;1.30;;;;;;;;;;5071151;28;20029;-49
2021/09/29 06:42:20;;;;;;;4.60;1.40;;;;;;;;;;5071302;28;20098;-46
2021/09/29 06:44:47;;;;;;;6.38;1.70;;;;;;;;;;5070920;28;20081;-46
2021/09/29 06:47:14;;;;;;;7.50;1.20;;;;;;;;;;5070833;28;20032;-45
2021/09/29 06:49:41;;;;;;;6.00;1.30;;;;;;;;;;5071249;28;20565;-43
2021/09/29 06:52:08;;;;;;;4.45;1.30;;;;;;;;;;5071838;28;20031;-44
2021/09/29 06:54:35;;;;;;;4.05;1.52;;;;;;;;;;5073572;28;20046;-46
2021/09/29 06:57:02;;;;;;;5.18;1.23;;;;;;;;;;5075079;28;20017;-46
2021/09/29 06:59:29;;;;;;;4.50;1.48;;;;;;;;;;5074783;28;20076;-44
2021/09/29 07:01:56;;;;;;;4.47;1.45;;;;;;;;;;5074627;28;20032;-44
2021/09/29 07:04:23;;;;;;;6.97;1.30;;;;;;;;;;5074841;28;20029;-46
2021/09/29 07:06:50;;;;;;;3.67;1.10;;;;;;;;;;5074448;28;20032;-43
2021/09/29 07:09:17;;;;;;;3.15;1.13;;;;;;;;;;5074671;28;20023;-46
2021/09/29 07:11:44;;;;;;;4.65;1.00;;;;;;;;;;5074753;28;20376;-45
2021/09/29 07:14:11;;;;;;;3.40;1.20;;;;;;;;;;5074471;28;20078;-44
2021/09/29 07:16:38;;;;;;;2.38;0.93;;;;;;;;;;5074415;28;20028;-46
2021/09/29 07:19:04;;;;;;;3.88;1.30;;;;;;;;;;5074506;28;20387;-44
2021/09/29 07:21:32;;;;;;;6.90;1.25;;;;;;;;;;5074490;28;20100;-44
2021/09/29 07:23:59;;;;;;;2.72;1.23;;;;;;;;;;5073249;28;20074;-43
2021/09/29 07:26:26;;;;;;;4.88;1.52;;;;;;;;;;5074222;28;20036;-45
2021/09/29 07:28:53;;;;;;;2.65;1.02;;;;;;;;;;5074190;28;20078;-46
2021/09/29 07:31:20;;;;;;;5.35;1.60;;;;;;;;;;5074204;28;20017;-46
2021/09/29 07:33:47;;;;;;;3.75;1.42;;;;;;;;;;5074208;28;20020;-45
2021/09/29 07:36:14;;;;;;;3.15;1.10;;;;;;;;;;5073867;28;20045;-44
2021/09/29 07:38:41;;;;;;;4.45;1.40;;;;;;;;;;5074108;28;20319;-44
2021/09/29 07:41:08;;;;;;;3.88;1.08;;;;;;;;;;5074259;28;20494;-45
2021/09/29 07:43:36;;;;;;;3.17;1.08;;;;;;;;;;5073956;28;20021;-45
2021/09/29 07:46:03;;;;;;;2.20;1.10;;;;;;;;;;5073709;28;20476;-46
2021/09/29 07:48:30;;;;;;;2.90;1.17;;;;;;;;;;5074007;28;20036;-45
2021/09/29 07:50:57;;;;;;;4.30;1.30;;;;;;;;;;5073823;28;20024;-45
2021/09/29 07:53:25;;;;;;;3.20;1.10;;;;;;;;;;5073696;28;20031;-45
2021/09/29 07:55:53;;;;;;;2.97;1.05;;;;;;;;;;5074015;28;20025;-44
2021/09/29 07:58:21;;;;;;;2.88;1.30;;;;;;;;;;5073641;28;20618;-48
2021/09/29 08:00:48;;;;;;;2.72;1.00;;;;;;;;;;5073668;28;20115;-43
2021/09/29 08:03:15;;;;;;;4.13;1.13;;;;;;;;;;5073791;28;20106;-46
2021/09/29 08:05:42;;;;;;;4.75;1.10;;;;;;;;;;5073486;28;20040;-44
2021/09/29 08:08:10;;;;;;;3.35;1.10;;;;;;;;;;5073470;28;20150;-45
2021/09/29 08:10:37;;;;;;;3.22;0.90;;;;;;;;;;5073581;28;20378;-43
2021/09/29 08:13:04;;;;;;;2.38;1.05;;;;;;;;;;5073463;28;20021;-45
2021/09/29 08:15:31;;;;;;;3.83;0.98;;;;;;;;;;5073363;28;20027;-45
2021/09/29 08:17:58;;;;;;;3.05;0.88;;;;;;;;;;5073361;28;20035;-49
2021/09/29 08:20:28;;;;;;;2.28;0.95;;;;;;;;;;5073429;28;20025;-45
2021/09/29 08:23:02;;;;;;;4.13;0.85;;;;;;;;;;5073225;28;20438;-45
2021/09/29 08:29:04;;;;;;;2.75;1.00;;;;;;;;;;5073051;28;20396;-43
2021/09/29 08:31:11;;;;;;;2.95;0.88;;;;;;;;;;5067327;28;20043;-45
2021/09/29 08:38:50;;;;;;;2.63;0.80;;;;;;;;;;5072827;28;20033;-44
2021/09/29 08:44:08;;;;;;;2.50;0.85;;;;;;;;;;5072899;28;20047;-45
2021/09/29 08:49:20;;;;;;;3.08;0.80;;;;;;;;;;5073002;28;20025;-45
2021/09/29 09:16:11;;;;;;;3.42;1.00;;;;;;;;;;5073150;28;20298;-44
2021/09/29 09:18:51;;;;;;;3.33;0.98;;;;;;;;;;5072672;28;20387;-46
2021/09/29 09:21:19;;;;;;;2.05;0.90;;;;;;;;;;5072826;28;20468;-45
2021/09/29 09:23:46;;;;;;;2.60;0.80;;;;;;;;;;5072896;28;20020;-45
2021/09/29 09:26:16;;;;;;;3.03;1.02;;;;;;;;;;5072440;28;20055;-44
2021/09/29 09:28:43;;;;;;;2.08;0.80;;;;;;;;;;5072301;28;20016;-46
2021/09/29 09:31:16;;;;;;;4.78;1.13;;;;;;;;;;5072709;28;20438;-45
2021/09/29 09:33:50;;;;;;;2.80;1.20;;;;;;;;;;5072499;28;20069;-44
2021/09/29 09:36:27;;;;;;;2.15;1.00;;;;;;;;;;5070686;28;20147;-45
2021/09/29 09:38:55;;;;;;;3.42;0.77;;;;;;;;;;5071071;28;20059;-44
2021/09/29 09:41:24;;;;;;;1.73;0.70;;;;;;;;;;5072495;28;20036;-46
2021/09/29 09:43:58;;;;;;;3.38;1.08;;;;;;;;;;5072536;28;20028;-44
2021/09/29 09:46:25;;;;;;;3.65;0.80;;;;;;;;;;5072143;28;20051;-44
2021/09/29 09:49:07;;;;;;;4.57;0.90;;;;;;;;;;5072092;28;20025;-43
2021/09/29 09:51:46;;;;;;;4.45;1.10;;;;;;;;;;5071928;28;20027;-45
2021/09/29 09:54:14;;;;;;;3.80;0.90;;;;;;;;;;5071731;28;20016;-46
2021/09/29 09:56:43;;;;;;;2.65;0.80;;;;;;;;;;5071929;28;20027;-44
2021/09/29 09:59:10;;;;;;;4.93;1.15;;;;;;;;;;5071956;28;20103;-43
2021/09/29 10:01:37;;;;;;;2.35;0.80;;;;;;;;;;5071692;28;20096;-47
2021/09/29 10:04:12;;;;;;;7.38;0.93;;;;;;;;;;5072015;28;20027;-47
2021/09/29 10:06:39;;;;;;;3.50;1.15;;;;;;;;;;5071606;28;20077;-45
2021/09/29 10:09:24;;;;;;;4.32;1.10;;;;;;;;;;5071829;28;20469;-43
2021/09/29 10:28:10;;;;;;;2.75;1.20;;;;;;;;;;5074331;28;20035;-45
2021/09/29 10:30:42;;;;;;;4.53;1.10;;;;;;;;;;5076008;28;20468;-45
2021/09/29 10:33:14;;;;;;;2.75;0.80;;;;;;;;;;5075809;28;20040;-47
2021/09/29 10:35:47;;;;;;;2.27;0.90;;;;;;;;;;5074324;28;20102;-43
2021/09/29 10:43:20;;;;;;;9.10;1.50;;;;;;;;;;5068709;28;20021;-43
2021/09/29 10:46:02;;;;;;;8.75;3.08;;;;;;;;;;5069992;28;20028;-41
2021/09/29 10:48:41;;;;;;;5.50;3.20;;;;;;;;;;5073805;28;20029;-43
2021/09/29 10:51:45;;;;;;;10.90;3.95;;;;;;;;;;5074682;28;20025;-42
2021/09/29 11:30:33;;;;;;;9.05;4.53;;;;;;;;;;5053555;28;20025;-40
2021/09/29 11:33:05;;;;;;;7.30;4.43;;;;;;;;;;5052655;28;20496;-41
2021/09/29 11:49:52;;;;;;;;;;;;;;;;;;5054425;28;20090;-41
2021/09/29 12:11:28;;;;;;;8.02;5.13;;;;;;;;;;5072565;28;20024;-41
2021/09/29 12:13:57;;;;;;;5.22;3.00;;;;;;;;;;5072351;28;20516;-40
2021/09/29 12:16:37;;;;;;;5.82;2.47;;;;;;;;;;5073228;28;20707;-43
2021/09/29 12:19:06;;;;;;;5.35;2.35;;;;;;;;;;5073530;28;20565;-41
2021/09/29 12:21:42;;;;;;;10.68;2.50;;;;;;;;;;5073277;28;20032;-42
2021/09/29 12:24:12;;;;;;;7.25;2.10;;;;;;;;;;5072080;28;20024;-43
2021/09/29 12:26:52;;;;;;;7.60;2.20;;;;;;;;;;5072704;28;20041;-44
2021/09/29 12:35:02;;;;;;;;;;;;;;;;;;5069536;28;20032;-40
2021/09/29 12:37:29;;;;;;;4.30;1.90;;;;;;;;;;5070107;28;19916;-43
2021/09/29 12:39:57;;;;;;;3.97;1.95;;;;;;;;;;5071137;28;20024;-41
2021/09/29 12:42:39;;;;;;;4.95;1.80;;;;;;;;;;5071606;28;20104;-43
2021/09/29 12:45:06;;;;;;;7.65;1.77;;;;;;;;;;5070793;28;20492;-41
2021/09/29 12:50:09;;;;;;;5.70;1.92;;;;;;;;;;5071624;28;20033;-43
2021/09/29 12:52:38;;;;;;;2.78;1.88;;;;;;;;;;5071582;28;20098;-39
2021/09/29 12:55:06;;;;;;;4.43;2.08;;;;;;;;;;5072060;28;20039;-40
2021/09/29 12:57:33;;;;;;;5.30;1.90;;;;;;;;;;5071835;28;20056;-40
2021/09/29 13:00:00;;;;;;;8.75;2.42;;;;;;;;;;5070419;28;20028;-41
2021/09/29 13:02:27;;;;;;;5.03;1.92;;;;;;;;;;5071287;28;20024;-41
2021/09/29 13:04:54;;;;;;;6.43;2.40;;;;;;;;;;5071418;28;20078;-41
2021/09/29 13:07:21;;;;;;;6.75;2.17;;;;;;;;;;5070550;28;20090;-42
2021/09/29 13:09:49;;;;;;;10.82;2.60;;;;;;;;;;5072521;28;20100;-40
2021/09/29 13:12:16;;;;;;;7.65;2.05;;;;;;;;;;5072021;28;20476;-39
2021/09/29 13:14:43;;;;;;;8.93;2.25;;;;;;;;;;5070879;28;20054;-39
2021/09/29 13:17:10;;;;;;;11.75;2.50;;;;;;;;;;5068271;28;20031;-38
2021/09/29 13:19:56;;;;;;;9.02;2.75;;;;;;;;;;5070338;28;20107;-41
2021/09/29 13:22:25;;;;;;;5.22;2.33;;;;;;;;;;5070113;28;20097;-39
2021/09/29 13:36:39;;;;;;;5.18;2.28;;;;;;;;;;5060366;28;20036;-38
2021/09/29 13:39:08;;;;;;;6.20;2.53;;;;;;;;;;5070323;28;20112;-38
2021/09/29 13:41:35;;;;;;;6.32;2.58;;;;;;;;;;5069806;28;20026;-40
2021/09/29 13:44:02;;;;;;;7.57;2.30;;;;;;;;;;5070097;28;20468;-38
2021/09/29 13:46:29;;;;;;;10.93;3.03;;;;;;;;;;5065367;28;20110;-43
2021/09/29 13:48:58;;;;;;;11.45;2.75;;;;;;;;;;5066807;28;20473;-39
2021/09/29 13:51:27;;;;;;;8.35;2.92;;;;;;;;;;5070213;28;20365;-40
2021/09/29 13:54:04;;;;;;;6.82;2.70;;;;;;;;;;5069891;28;20048;-37
2021/09/29 13:56:42;;;;;;;10.25;2.40;;;;;;;;;;5068788;28;20025;-39
2021/09/29 13:59:30;;;;;;;6.15;2.22;;;;;;;;;;5068259;28;20033;-38
2021/09/29 14:29:17;;;;;;;20.90;3.45;;;;;;;;;;5065185;28;20036;-41
2021/09/29 14:34:20;;;;;;;16.20;3.42;;;;;;;;;;5070280;28;20024;-42
2021/09/29 14:36:47;;;;;;;15.32;3.65;;;;;;;;;;5069869;28;20076;-39
2021/09/29 14:39:14;;;;;;;9.10;2.85;;;;;;;;;;5069322;28;20028;-40
2021/09/29 14:41:41;;;;;;;9.98;3.10;;;;;;;;;;5058883;28;20060;-48
2021/09/29 14:44:09;;;;;;;9.95;2.80;;;;;;;;;;5069515;28;20379;-41
2021/09/29 14:46:36;;;;;;;8.13;2.70;;;;;;;;;;5069330;28;20387;-42
2021/09/29 14:49:03;;;;;;;9.13;2.80;;;;;;;;;;5069147;28;20044;-40
2021/09/29 14:51:31;;;;;;;10.35;2.78;;;;;;;;;;5058506;28;20472;-42
2021/09/29 14:53:59;;;;;;;7.93;2.97;;;;;;;;;;5069799;28;20035;-42
2021/09/29 14:56:28;;;;;;;7.88;2.50;;;;;;;;;;5069898;28;20035;-40
2021/09/29 14:58:55;;;;;;;9.68;3.08;;;;;;;;;;5067395;28;20038;-38
2021/09/29 15:01:23;;;;;;;10.32;2.60;;;;;;;;;;5059793;28;20104;-39
2021/09/29 15:03:53;;;;;;;8.75;3.13;;;;;;;;;;5065127;28;20036;-53
2021/09/29 15:06:20;;;;;;;7.28;3.10;;;;;;;;;;5068666;28;20058;-39
2021/09/29 15:08:47;;;;;;;9.20;2.95;;;;;;;;;;5065863;28;20032;-38
2021/09/29 15:11:14;;;;;;;8.18;2.92;;;;;;;;;;5059475;28;20025;-39
2021/09/29 15:13:50;;;;;;;7.45;2.97;;;;;;;;;;5068489;28;20107;-43
2021/09/29 15:16:34;;;;;;;7.82;3.10;;;;;;;;;;5071229;28;20279;-44
2021/09/29 15:46:18;;;;;;;11.18;2.90;;;;;;;;;;5064827;28;20067;-45
2021/09/29 17:52:17;;;;;;;8.75;3.60;;;;;;;;;;5071771;28;20125;-43
2021/09/29 17:54:45;;;;;;;11.40;3.75;;;;;;;;;;5071759;28;20425;-44
2021/09/29 17:57:12;;;;;;;10.35;3.35;;;;;;;;;;5035454;28;20029;-42
2021/09/29 17:59:43;;;;;;;10.18;4.00;;;;;;;;;;5050705;28;20025;-44
2021/09/29 18:02:15;;;;;;;17.17;3.67;;;;;;;;;;5052148;28;20025;-43
2021/09/29 18:04:45;;;;;;;14.60;4.05;;;;;;;;;;5051912;28;20025;-46
2021/09/29 18:09:49;;;;;;;9.80;3.20;;;;;;;;;;5071891;28;20028;-41
2021/09/29 18:12:17;;;;;;;12.63;3.47;;;;;;;;;;5072264;28;20024;-48
2021/09/29 18:14:44;;;;;;;10.88;3.78;;;;;;;;;;5071909;28;20016;-48
2021/09/29 18:17:11;;;;;;;13.23;3.55;;;;;;;;;;5075226;28;20016;-48
2021/09/29 18:19:39;;;;;;;10.38;3.38;;;;;;;;;;5092226;28;20028;-47
2021/09/29 18:22:07;;;;;;;8.00;3.42;;;;;;;;;;5091617;28;20028;-42
2021/09/29 18:24:34;;;;;;;10.82;3.67;;;;;;;;;;5092066;28;20024;-44
2021/09/29 18:27:01;;;;;;;10.48;4.18;;;;;;;;;;5080354;28;20062;-43
2021/09/29 18:29:28;;;;;;;11.10;3.40;;;;;;;;;;5071828;28;20029;-39
2021/09/29 18:31:55;;;;;;;10.95;3.08;;;;;;;;;;5071471;28;20127;-40
2021/09/29 18:34:25;;;;;;;13.10;3.50;;;;;;;;;;5063323;28;20027;-42
2021/09/29 18:36:52;;;;;;;13.63;3.50;;;;;;;;;;5046662;28;20523;-43
2021/09/29 18:39:22;;;;;;;9.45;3.30;;;;;;;;;;5069942;28;20116;-48
2021/09/29 18:41:49;;;;;;;9.90;2.83;;;;;;;;;;5053374;28;20021;-44
2021/09/29 18:44:17;;;;;;;11.57;3.33;;;;;;;;;;5058225;28;20394;-43
2021/09/29 18:46:45;;;;;;;12.50;3.10;;;;;;;;;;5046882;28;20063;-42
2021/09/29 18:51:57;;;;;;;9.20;3.03;;;;;;;;;;5040113;22;20500;-42
2021/09/29 18:54:32;;;;;;;11.10;3.17;;;;;;;;;;5054891;28;20029;-41
2021/09/29 19:07:46;;;;;;;10.73;3.10;;;;;;;;;;5044384;28;20811;-40
2021/09/29 19:10:13;;;;;;;8.65;3.03;;;;;;;;;;5034477;28;20373;-40
2021/09/29 19:12:40;;;;;;;13.90;3.20;;;;;;;;;;5029873;28;20033;-40
2021/09/29 19:15:07;;;;;;;11.50;3.50;;;;;;;;;;5034373;28;20032;-37
2021/09/29 19:17:34;;;;;;;13.98;3.40;;;;;;;;;;5031006;28;20029;-40
2021/09/29 19:20:01;;;;;;;9.32;3.22;;;;;;;;;;5013695;28;20477;-42
2021/09/29 19:22:29;;;;;;;14.00;3.63;;;;;;;;;;5034868;28;20036;-40
2021/09/29 19:24:56;;;;;;;16.13;3.30;;;;;;;;;;5017126;28;20432;-42
2021/09/29 19:27:24;;;;;;;17.77;3.33;;;;;;;;;;5033414;28;20041;-36
2021/09/29 19:29:51;;;;;;;15.18;2.83;;;;;;;;;;5029556;28;20116;-39
2021/09/29 19:32:19;;;;;;;14.40;3.13;;;;;;;;;;5034569;28;20022;-46
2021/09/29 19:34:46;;;;;;;13.73;3.70;;;;;;;;;;5034674;28;20083;-37
2021/09/29 19:37:13;;;;;;;27.05;3.47;;;;;;;;;;5053128;28;20029;-38
2021/09/29 19:39:40;;;;;;;19.55;3.85;;;;;;;;;;5033101;28;20141;-40
2021/09/29 19:42:08;;;;;;;20.90;3.83;;;;;;;;;;5016600;28;20125;-39
2021/09/29 19:44:35;;;;;;;14.80;3.05;;;;;;;;;;5033681;28;20082;-39
2021/09/29 19:47:08;;;;;;;12.95;3.30;;;;;;;;;;5034053;28;20037;-40
2021/09/29 20:08:48;;;;;;;15.13;3.58;;;;;;;;;;5085907;28;20051;-38
2021/09/29 20:11:15;;;;;;;17.77;3.53;;;;;;;;;;5069715;28;20021;-41
2021/09/29 20:13:42;;;;;;;10.43;3.20;;;;;;;;;;5055187;28;20532;-46
2021/09/29 20:16:12;;;;;;;19.52;3.60;;;;;;;;;;5073295;28;20561;-44
2021/09/29 20:18:44;;;;;;;10.40;3.28;;;;;;;;;;5072502;28;20478;-41
2021/09/29 20:21:11;;;;;;;;;;;;;;;;;;5067047;28;20077;-43
2021/09/29 20:23:38;;;;;;;15.55;3.28;;;;;;;;;;5072101;28;20352;-41
2021/09/29 20:26:05;;;;;;;17.80;3.17;;;;;;;;;;5075513;28;20036;-44
2021/09/29 20:28:33;;;;;;;16.17;3.20;;;;;;;;;;5072705;28;20133;-46
2021/09/29 20:31:00;;;;;;;18.25;4.07;;;;;;;;;;5067628;28;20036;-44
2021/09/29 20:36:33;;;;;;;13.00;3.50;;;;;;;;;;5073324;28;20454;-46
2021/09/29 20:44:26;;;;;;;12.23;3.00;;;;;;;;;;5063230;28;20035;-40
2021/09/29 20:46:53;;;;;;;14.90;3.10;;;;;;;;;;5063422;28;20530;-37
2021/09/29 20:49:20;;;;;;;9.27;2.80;;;;;;;;;;5061580;28;20029;-38
2021/09/29 20:51:47;;;;;;;16.77;3.50;;;;;;;;;;5066127;28;20051;-45
2021/09/29 20:54:17;;;;;;;11.68;3.13;;;;;;;;;;5068392;28;20031;-41
2021/09/29 20:56:44;;;;;;;16.13;3.13;;;;;;;;;;5068873;28;20099;-42
2021/09/29 20:59:11;;;;;;;19.08;3.47;;;;;;;;;;5068514;28;20024;-43
2021/09/29 21:01:38;;;;;;;12.77;2.90;;;;;;;;;;5062349;28;20086;-39
2021/09/29 21:04:05;;;;;;;17.17;3.58;;;;;;;;;;5044949;28;20032;-42